Stations météo

réclame
Mon MeteoGroup
Carrion de los Condes, Espagne (8068): Température de l'air & dewpoint: 11.01.2020 23:00:00 - 17.01.2020 23:00:00 (CET)Carrion de los Condes, Espagne (8068): Vitesse du vent & gusts: 11.01.2020 23:00:00 - 17.01.2020 23:00:00 (CET)Carrion de los Condes, Espagne (8068): Direction du vent: 11.01.2020 23:00:00 - 17.01.2020 23:00:00 (CET)Carrion de los Condes, Espagne (8068): visibility: 11.01.2020 23:00:00 - 17.01.2020 23:00:00 (CET)Carrion de los Condes, Espagne (8068): Ensoleillement: 11.01.2020 23:00:00 - 17.01.2020 23:00:00 (CET)Carrion de los Condes, Espagne (8068): Quantités de précipitations: 11.01.2020 23:00:00 - 17.01.2020 23:00:00 (CET)
Date & Time tt [°C] td [°C] ff [km/h] ff [knt] fx [km/h] fx [knt] dd vv [km] sd [min] rr [mm]
17.01.2020 23:00:00 2,1 0,4 2 1 5 3 N 20 0 0,0
17.01.2020 22:00:00 2,9 0,9 2 1 6 3 NNE 20 0 0,0
17.01.2020 21:00:00 3,3 1,1 2 1 6 4 NE 20 0 0,0
17.01.2020 20:00:00 3,8 0,9 1 1 5 3 S 20 0 0,0
17.01.2020 19:00:00 4,7 1,3 2 1 8 4 SE 20 0 -
17.01.2020 18:00:00 6,2 0,9 4 2 10 5 SW 20 0 0,0
17.01.2020 17:00:00 7,7 1,3 2 1 19 11 WNW 20 0 0,0
17.01.2020 16:00:00 8,4 0,9 3 2 17 9 W 20 29 0,0
17.01.2020 15:00:00 9,6 1,3 5 3 23 13 WSW 20 39 0,0
17.01.2020 14:00:00 9,0 0,4 5 3 20 11 W 20 57 0,0
17.01.2020 13:00:00 7,7 1,5 5 3 22 12 W 20 43 -
17.01.2020 12:00:00 9,0 3,6 4 2 18 10 WSW 20 60 0,0
17.01.2020 11:00:00 6,7 3,9 4 2 16 9 W 20 60 0,0
17.01.2020 10:00:00 5,2 5,1 5 3 13 7 WSW 20 22 0,0
17.01.2020 09:00:00 3,6 3,0 3 1 16 8 W 20 0 0,0
17.01.2020 08:00:00 4,8 4,3 3 2 15 8 WSW 20 0 0,0
17.01.2020 07:00:00 4,9 4,5 4 2 22 12 W 20 0 -
17.01.2020 06:00:00 5,5 5,1 13 7 27 15 SW 20 0 0,0
17.01.2020 05:00:00 5,8 5,3 5 3 26 14 WSW 16 0 1,8
17.01.2020 04:00:00 5,9 4,5 13 7 38 21 SW 20 0 0,0
17.01.2020 03:00:00 6,1 4,5 20 11 41 22 SW 20 0 0,0
17.01.2020 02:00:00 6,2 4,5 19 10 39 21 SW 20 0 0,0
17.01.2020 01:00:00 6,7 4,8 17 9 46 25 SSW 20 0 -
17.01.2020 00:00:00 7,0 5,0 29 15 59 32 SW 20 0 0,0
16.01.2020 23:00:00 7,6 4,1 22 12 41 22 SW 20 0 0,0
16.01.2020 22:00:00 7,7 3,8 22 12 40 22 SSW 19 0 0,2
16.01.2020 21:00:00 8,0 4,3 22 12 52 28 SW 15 0 0,0
16.01.2020 20:00:00 8,2 3,2 17 9 38 21 SW 20 0 0,0
16.01.2020 19:00:00 8,3 2,5 15 8 29 16 SW 20 0 -
16.01.2020 18:00:00 9,0 2,5 13 7 33 18 SSW 20 0 0,0
16.01.2020 17:00:00 10,5 2,1 18 10 51 28 SW 20 33 0,0
16.01.2020 16:00:00 12,5 2,9 24 13 54 29 SW 20 60 0,0
16.01.2020 15:00:00 13,0 4,1 24 13 53 29 SW 20 55 0,0
16.01.2020 14:00:00 12,8 5,3 27 15 51 28 SSW 20 57 0,0
16.01.2020 13:00:00 11,4 5,9 23 13 55 30 SW 20 53 -
16.01.2020 12:00:00 11,9 7,6 24 13 49 26 SW 20 49 0,0
16.01.2020 11:00:00 9,8 6,5 13 7 27 14 SW 20 46 0,0
16.01.2020 10:00:00 7,5 5,6 6 4 18 10 SSW 20 6 0,0
16.01.2020 09:00:00 7,0 5,9 5 3 24 13 SSW 20 0 0,0
16.01.2020 08:00:00 6,8 6,4 12 7 20 11 SSW 20 0 0,0
16.01.2020 07:00:00 6,5 5,9 5 3 13 7 S 20 0 -
16.01.2020 06:00:00 6,1 5,0 3 2 11 6 WSW 20 0 0,0
16.01.2020 05:00:00 7,0 5,3 6 3 19 10 SSW 20 0 0,0
16.01.2020 04:00:00 7,0 5,5 8 5 14 8 SSW 20 0 0,0
16.01.2020 03:00:00 7,3 6,1 4 2 18 10 SSW 20 0 0,0
16.01.2020 02:00:00 7,2 6,7 6 3 18 10 SSW 16 0 0,0
16.01.2020 01:00:00 7,3 6,5 8 5 16 9 SSW 20 0 -
16.01.2020 00:00:00 7,4 6,8 10 5 19 10 SSW 20 0 0,0
15.01.2020 23:00:00 7,3 6,8 11 6 19 11 SW 20 0 0,0
15.01.2020 22:00:00 6,8 6,2 6 3 18 10 SSW 20 0 0,0
15.01.2020 21:00:00 6,5 5,0 6 3 14 8 S 20 0 0,0
15.01.2020 20:00:00 7,1 5,3 6 3 13 7 SSW 20 0 0,0
15.01.2020 19:00:00 7,7 5,3 6 3 21 11 SSW 20 0 -
15.01.2020 18:00:00 8,7 5,6 10 5 22 12 SW 20 0 0,0
15.01.2020 17:00:00 9,9 6,1 14 8 31 17 SW 20 0 0,0
15.01.2020 16:00:00 9,8 5,6 14 7 32 17 SW 20 0 0,0
15.01.2020 15:00:00 10,0 5,6 16 8 31 17 SW 20 8 0,0
15.01.2020 14:00:00 8,9 5,5 12 7 30 16 SW 20 0 0,0
15.01.2020 13:00:00 8,4 5,1 14 8 35 19 SW 20 0 -
15.01.2020 12:00:00 7,7 5,0 11 6 55 30 SW 20 0 0,0
15.01.2020 11:00:00 7,4 4,6 18 10 53 28 SW 20 0 0,0
15.01.2020 10:00:00 6,6 4,1 18 10 42 23 SSW 20 0 0,0
15.01.2020 09:00:00 6,2 3,9 19 10 41 22 SSW 20 0 0,0
15.01.2020 08:00:00 6,4 3,6 21 12 38 20 SSW 20 0 0,0
15.01.2020 07:00:00 6,2 3,4 18 10 37 20 SSW 20 0 -
15.01.2020 06:00:00 6,1 3,6 18 10 39 21 SSW 20 0 0,0
15.01.2020 05:00:00 6,2 3,9 18 10 35 19 SSW 20 0 0,0
15.01.2020 04:00:00 6,2 3,9 17 9 35 19 SW 20 0 0,0
15.01.2020 03:00:00 5,9 4,1 17 9 34 18 SSW 20 0 0,0
15.01.2020 02:00:00 5,9 4,3 15 8 28 15 SSW 20 0 0,0
15.01.2020 01:00:00 5,7 3,9 16 9 31 17 SW 20 0 -
15.01.2020 00:00:00 5,4 3,6 13 7 29 16 SW 20 0 0,0
14.01.2020 23:00:00 5,1 3,0 17 9 34 18 SW 20 0 0,0
14.01.2020 22:00:00 5,1 2,9 16 9 33 18 SW 20 0 0,0
14.01.2020 21:00:00 5,9 2,9 12 7 26 14 SW 20 0 0,0
14.01.2020 20:00:00 6,0 3,0 11 6 29 16 SW 20 0 0,0
14.01.2020 19:00:00 6,3 3,0 13 7 30 16 SW 20 0 -
14.01.2020 18:00:00 7,1 3,0 17 9 32 17 SW 20 0 0,0
14.01.2020 17:00:00 7,6 3,0 14 8 37 20 SSW 20 0 0,0
14.01.2020 16:00:00 8,0 3,6 19 10 36 20 SSW 20 0 0,0
14.01.2020 15:00:00 7,4 3,6 16 8 37 20 SW 20 0 0,0
14.01.2020 14:00:00 6,6 3,0 17 9 35 19 SSW 20 0 0,0
14.01.2020 13:00:00 5,4 2,5 12 7 28 15 SSW 20 0 -
14.01.2020 12:00:00 4,3 2,1 13 7 28 15 SW 20 0 0,0
14.01.2020 11:00:00 3,3 1,3 14 8 29 16 SW 20 0 0,0
14.01.2020 10:00:00 2,4 0,9 5 3 17 9 SW 20 0 0,0
14.01.2020 09:00:00 2,3 0,9 9 5 20 11 SSW 20 0 0,0
14.01.2020 08:00:00 2,5 1,5 9 5 20 11 SSW 17 0 0,0
14.01.2020 07:00:00 3,0 2,1 11 6 31 17 SW 20 0 -
14.01.2020 06:00:00 3,0 3,0 11 6 27 15 SW 20 0 0,0
14.01.2020 05:00:00 2,6 - 8 4 18 10 SW 17 0 0,0
14.01.2020 04:00:00 1,9 - 3 2 12 7 WSW 8 0 0,0
14.01.2020 03:00:00 1,4 - 3 2 14 7 W 6 0 0,0
14.01.2020 02:00:00 1,1 - 1 1 9 5 W 6 0 0,0
14.01.2020 01:00:00 0,7 - 4 2 12 7 SW 6 0 -
14.01.2020 00:00:00 0,5 - 4 2 14 7 WSW 2,6 0 0,0
13.01.2020 23:00:00 0,8 - 3 1 8 4 W 0,3 0 0,0
13.01.2020 22:00:00 0,9 - 3 2 9 5 SW - 0 0,0
13.01.2020 21:00:00 0,9 - 2 1 13 7 WNW 4,4 0 0,0
13.01.2020 20:00:00 0,5 - 1 1 9 5 WNW 6 0 0,0
13.01.2020 19:00:00 0,2 - 3 1 7 4 SW 9 0 -
13.01.2020 18:00:00 0,0 - 5 3 17 9 SW 13 0 0,0
13.01.2020 17:00:00 -0,2 - 6 4 18 10 SW 4,8 0 0,0
13.01.2020 16:00:00 -0,3 - 8 4 20 11 SW 7 0 0,0
13.01.2020 15:00:00 -0,6 - 8 4 15 8 SW 16 0 0,0
13.01.2020 14:00:00 -0,9 - 9 5 18 10 SW 10 0 0,0
13.01.2020 13:00:00 -1,5 - 5 3 13 7 SW 11 0 -
13.01.2020 12:00:00 -1,6 - 5 3 12 6 SW 5 0 0,0
13.01.2020 11:00:00 -2,2 - 3 2 11 6 SW - 0 0,0
13.01.2020 10:00:00 -2,6 - 1 1 12 7 SSW 0,4 0 0,0
13.01.2020 09:00:00 -2,9 - 2 1 14 8 SW 0,7 0 0,0
13.01.2020 08:00:00 -2,9 - 4 2 13 7 N - 0 0,0
13.01.2020 07:00:00 -2,9 - 4 2 16 8 SSE 0,4 0 -
13.01.2020 06:00:00 -2,7 - 2 1 14 8 SSE 0,4 0 0,0
13.01.2020 05:00:00 -2,7 - 3 1 14 8 SSE 0,4 0 0,0
13.01.2020 04:00:00 -2,9 - 6 3 10 5 SE 0,3 0 0,0
13.01.2020 03:00:00 -2,6 - 6 3 21 11 SE 0,3 0 0,0
13.01.2020 02:00:00 -2,1 - 2 1 14 8 NNW 0,3 0 0,0
13.01.2020 01:00:00 -1,6 - 2 1 6 4 ESE 0,2 0 -
13.01.2020 00:00:00 -1,5 - 1 1 5 3 E 0,2 0 0,0
12.01.2020 23:00:00 -1,1 - 2 1 5 3 SW 0,2 0 0,0
12.01.2020 22:00:00 -0,9 - 2 1 7 4 W 0,2 0 0,0
12.01.2020 21:00:00 -0,3 - 3 1 6 4 SSW 0,2 0 0,0
12.01.2020 20:00:00 -0,1 - 3 2 7 4 WSW 0,2 0 0,0
12.01.2020 19:00:00 0,2 - 2 1 6 3 NW 0,3 0 -
12.01.2020 18:00:00 0,6 - 2 1 6 4 NW 0,2 0 0,0
12.01.2020 17:00:00 1,0 - 2 1 8 4 W 0,3 0 0,0
12.01.2020 16:00:00 1,0 - 4 2 11 6 NW 0,4 0 0,0
12.01.2020 15:00:00 0,7 - 2 1 8 4 NNW 0,7 0 0,0
12.01.2020 14:00:00 0,0 - 3 1 6 3 ENE 0,5 0 0,0
12.01.2020 13:00:00 -1,0 - 3 1 7 4 ENE 0,3 0 -
12.01.2020 12:00:00 -1,8 - 3 1 16 9 NNE 0,3 0 0,0
12.01.2020 11:00:00 -2,4 - 3 1 16 9 N 0,3 0 0,0
12.01.2020 10:00:00 -2,3 - 5 3 10 5 NNE 0,5 0 0,0
12.01.2020 09:00:00 -2,5 - 4 2 17 9 NNE 0,4 0 0,0
12.01.2020 08:00:00 -2,5 - 4 2 18 10 NNE 0,4 0 0,0
12.01.2020 07:00:00 -2,1 - 4 2 16 9 NE 0,3 0 -
12.01.2020 06:00:00 -2,0 - 3 1 16 9 N 0,2 0 0,0
12.01.2020 05:00:00 -1,9 - 3 2 6 4 SW 0,2 0 0,0
12.01.2020 04:00:00 -1,7 - 4 2 11 6 SW 0,2 0 0,0
12.01.2020 03:00:00 -1,5 -1,4 4 2 10 6 SW 0,2 0 0,0
12.01.2020 02:00:00 -1,4 -1,4 6 3 13 7 SW 0,4 0 0,0
12.01.2020 01:00:00 -1,4 -1,4 5 3 12 6 SW 0,2 0 -
12.01.2020 00:00:00 -2,0 -2,2 3 2 5 3 SW 0,2 0 0,0
11.01.2020 23:00:00 -1,7 -2,5 1 1 3 2 W 3,4 0 0,0

tt = Température de l'air
td = dewpoint
ff = Vitesse du vent
fx = gusts
dd = Direction du vent
vv = visibility
sd = Ensoleillement
rr = Quantités de précipitations

stations d'obs. à proximité